createdAt,value
2022-09-26T00:00:39.398Z,13.50
2022-09-26T00:03:12.930Z,14.90
2022-09-26T00:05:45.318Z,15.20
2022-09-26T00:08:17.801Z,14.90
2022-09-26T00:10:59.650Z,12.30
2022-09-26T00:13:33.833Z,11.90
2022-09-26T00:16:07.424Z,11.80
2022-09-26T00:21:12.530Z,11.00
2022-09-26T00:23:46.441Z,12.50
2022-09-26T00:26:20.838Z,12.10
2022-09-26T00:28:54.208Z,15.80
2022-09-26T00:31:29.988Z,15.60
2022-09-26T00:34:02.309Z,17.40
2022-09-26T00:36:38.485Z,21.40
2022-09-26T00:39:13.130Z,19.90
2022-09-26T00:41:45.923Z,20.50
2022-09-26T00:44:42.707Z,21.60
2022-09-26T00:47:30.972Z,20.30
2022-09-26T00:50:06.602Z,19.90
2022-09-26T00:52:42.356Z,20.70
2022-09-26T00:55:16.956Z,21.60
2022-09-26T00:57:53.848Z,24.00
2022-09-26T01:00:26.250Z,24.90
2022-09-26T01:02:59.210Z,23.70
2022-09-26T01:05:32.853Z,23.80
2022-09-26T01:08:06.758Z,23.20
2022-09-26T01:10:39.681Z,22.50
2022-09-26T01:13:13.500Z,22.00
2022-09-26T01:15:45.550Z,21.50
2022-09-26T01:18:17.901Z,22.80
2022-09-26T01:20:58.450Z,21.70
2022-09-26T01:23:59.771Z,22.10
2022-09-26T01:26:46.758Z,21.00
2022-09-26T01:29:58.702Z,20.70
2022-09-26T01:32:51.731Z,20.90
2022-09-26T01:35:37.368Z,21.60
2022-09-26T01:38:22.120Z,22.00
2022-09-26T01:41:06.911Z,23.10
2022-09-26T01:43:49.419Z,23.00
2022-09-26T01:46:32.836Z,22.50
2022-09-26T01:49:13.445Z,21.00
2022-09-26T01:51:55.654Z,21.60
2022-09-26T01:54:36.651Z,21.40
2022-09-26T01:57:15.469Z,21.60
2022-09-26T01:59:54.650Z,21.90
2022-09-26T02:02:31.520Z,21.60
2022-09-26T02:05:10.178Z,20.50
2022-09-26T02:07:47.416Z,21.90
2022-09-26T02:10:23.669Z,23.60
2022-09-26T02:13:00.808Z,22.00
2022-09-26T02:15:36.571Z,23.40
2022-09-26T02:18:16.651Z,23.60
2022-09-26T02:20:53.278Z,23.50
2022-09-26T02:23:25.739Z,22.90
2022-09-26T02:26:00.287Z,23.00
2022-09-26T02:28:32.782Z,22.90
2022-09-26T02:31:08.647Z,22.90
2022-09-26T02:33:41.728Z,23.40
2022-09-26T02:36:14.749Z,24.00
2022-09-26T02:38:47.548Z,25.20
2022-09-26T02:41:50.594Z,24.30
2022-09-26T02:44:35.519Z,24.90
2022-09-26T02:47:37.439Z,26.50
2022-09-26T02:50:33.665Z,24.70
2022-09-26T02:53:17.908Z,27.00
2022-09-26T02:56:10.221Z,26.50
2022-09-26T02:58:59.019Z,26.40
2022-09-26T03:01:40.731Z,28.20
2022-09-26T03:04:20.245Z,28.50
2022-09-26T03:06:57.621Z,30.60
2022-09-26T03:09:31.641Z,30.40
2022-09-26T03:12:07.482Z,32.00
2022-09-26T03:14:44.295Z,31.80
2022-09-26T03:17:19.981Z,31.70
2022-09-26T03:19:59.413Z,35.20
2022-09-26T03:22:31.709Z,30.80
2022-09-26T03:25:05.210Z,31.70
2022-09-26T03:27:44.140Z,35.80
2022-09-26T03:30:19.064Z,32.70
2022-09-26T03:33:03.621Z,33.60
2022-09-26T03:35:36.651Z,35.10
2022-09-26T03:38:12.433Z,36.30
2022-09-26T03:40:49.759Z,31.60
2022-09-26T03:43:44.232Z,31.90
2022-09-26T03:46:17.418Z,31.50
2022-09-26T03:48:51.080Z,34.10
2022-09-26T03:51:23.457Z,35.50
2022-09-26T03:53:55.771Z,34.80
2022-09-26T03:56:29.194Z,32.60
2022-09-26T03:59:01.444Z,33.60
2022-09-26T04:01:34.108Z,34.40
2022-09-26T04:04:06.998Z,32.10
2022-09-26T04:06:39.610Z,33.00
2022-09-26T04:09:16.889Z,33.80
2022-09-26T04:11:52.860Z,34.00
2022-09-26T04:14:26.728Z,31.30
2022-09-26T04:17:02.473Z,31.70
2022-09-26T04:19:38.821Z,30.50
2022-09-26T04:22:11.418Z,32.40
2022-09-26T04:24:44.726Z,31.70
2022-09-26T04:27:20.927Z,32.70
2022-09-26T04:29:57.390Z,31.30
2022-09-26T04:32:42.408Z,29.10
2022-09-26T04:35:37.821Z,30.40
2022-09-26T04:38:12.400Z,29.40
2022-09-26T04:40:45.049Z,28.40
2022-09-26T04:43:17.538Z,28.70
2022-09-26T04:45:49.964Z,29.20
2022-09-26T04:48:23.928Z,28.10
2022-09-26T04:51:17.041Z,28.00
2022-09-26T04:53:50.870Z,28.90
2022-09-26T04:56:34.048Z,28.60
2022-09-26T04:59:06.632Z,28.20
2022-09-26T05:01:46.812Z,28.80
2022-09-26T05:04:27.631Z,28.10
2022-09-26T05:07:00.702Z,27.60
2022-09-26T05:09:36.330Z,28.80
2022-09-26T05:12:28.696Z,27.30
2022-09-26T05:15:02.088Z,27.40
2022-09-26T05:20:09.060Z,24.20
2022-09-26T05:22:54.511Z,25.90
2022-09-26T05:25:44.413Z,25.40
2022-09-26T05:28:16.960Z,26.30
2022-09-26T05:30:50.709Z,26.70
2022-09-26T05:33:23.415Z,25.20
2022-09-26T05:35:59.561Z,26.50
2022-09-26T05:38:35.027Z,26.70
2022-09-26T05:41:07.906Z,26.30
2022-09-26T05:43:40.470Z,27.90
2022-09-26T05:46:17.006Z,27.20
2022-09-26T05:48:54.701Z,27.10
2022-09-26T05:51:27.459Z,27.00
2022-09-26T05:54:00.209Z,27.70
2022-09-26T05:56:37.609Z,30.60
2022-09-26T05:59:16.050Z,32.30
2022-09-26T06:02:09.937Z,32.60
2022-09-26T06:05:05.430Z,32.00
2022-09-26T06:08:03.151Z,29.30
2022-09-26T06:11:03.380Z,29.60
2022-09-26T06:13:36.199Z,29.50
2022-09-26T06:16:12.177Z,32.10
2022-09-26T06:18:44.490Z,33.80
2022-09-26T06:21:18.820Z,33.00
2022-09-26T06:23:54.114Z,32.00
2022-09-26T06:26:29.134Z,32.80
2022-09-26T06:29:02.799Z,33.10
2022-09-26T06:31:39.787Z,33.30
2022-09-26T06:34:16.217Z,31.50
2022-09-26T06:36:54.729Z,27.90
2022-09-26T06:39:35.945Z,28.10
2022-09-26T06:42:11.927Z,31.90
2022-09-26T06:45:03.790Z,33.00
2022-09-26T06:47:56.779Z,37.10
2022-09-26T06:50:40.100Z,33.50
2022-09-26T06:53:13.118Z,33.20
2022-09-26T06:55:47.105Z,35.30
2022-09-26T06:58:19.558Z,34.10
2022-09-26T07:01:18.849Z,36.10
2022-09-26T07:04:16.389Z,38.90
2022-09-26T07:06:58.403Z,42.00
2022-09-26T07:09:31.969Z,40.70
2022-09-26T07:12:19.998Z,40.70
2022-09-26T07:14:53.913Z,36.70
2022-09-26T07:17:33.999Z,39.10
2022-09-26T07:20:19.486Z,40.60
2022-09-26T07:23:14.809Z,37.40
2022-09-26T07:25:49.770Z,37.40
2022-09-26T07:28:23.566Z,36.90
2022-09-26T07:30:59.962Z,37.20
2022-09-26T07:33:48.042Z,37.80
2022-09-26T07:36:21.410Z,40.50
2022-09-26T07:38:54.119Z,39.40
2022-09-26T07:41:28.248Z,39.20
2022-09-26T07:47:11.021Z,39.80
2022-09-26T07:50:07.808Z,39.30
2022-09-26T07:52:44.061Z,38.90
2022-09-26T07:55:29.769Z,39.50
2022-09-26T07:58:14.339Z,38.00
2022-09-26T08:01:05.021Z,37.90
2022-09-26T08:03:58.575Z,40.90
2022-09-26T08:06:40.116Z,43.00
2022-09-26T08:09:13.523Z,43.70
2022-09-26T08:12:21.753Z,35.70
2022-09-26T08:15:09.371Z,35.40
2022-09-26T08:17:46.344Z,34.80
2022-09-26T08:20:21.829Z,37.00
2022-09-26T08:22:58.026Z,38.50
2022-09-26T08:25:33.384Z,38.60
2022-09-26T08:28:29.178Z,37.40
2022-09-26T08:31:05.714Z,37.50
2022-09-26T08:33:39.360Z,36.80
2022-09-26T08:39:03.328Z,35.40
2022-09-26T08:42:14.149Z,36.90
2022-09-26T08:45:36.721Z,35.50
2022-09-26T08:48:43.917Z,33.00
2022-09-26T08:51:29.579Z,32.90
2022-09-26T08:54:10.850Z,32.70
2022-09-26T08:56:48.668Z,33.20
2022-09-26T08:59:29.058Z,31.10
2022-09-26T09:02:07.456Z,31.80
2022-09-26T09:05:08.396Z,29.70
2022-09-26T09:07:49.100Z,31.60
2022-09-26T09:10:28.111Z,30.70
2022-09-26T09:13:13.890Z,30.30
2022-09-26T09:16:23.446Z,29.70
2022-09-26T09:19:36.587Z,30.60
2022-09-26T09:23:04.802Z,31.50
2022-09-26T09:25:49.092Z,30.40
2022-09-26T09:28:38.138Z,31.10
2022-09-26T09:31:13.819Z,33.10
2022-09-26T09:34:12.195Z,32.00
2022-09-26T09:37:17.375Z,31.10
2022-09-26T09:39:54.055Z,30.40
2022-09-26T09:42:38.025Z,30.50
2022-09-26T09:45:19.870Z,29.60
2022-09-26T09:47:52.308Z,30.20
2022-09-26T09:50:49.171Z,28.80
2022-09-26T09:53:35.640Z,26.50
2022-09-26T09:56:19.068Z,27.80
2022-09-26T09:59:06.394Z,28.00
2022-09-26T10:02:01.664Z,26.40
2022-09-26T10:04:44.347Z,27.30
2022-09-26T10:07:21.930Z,26.90
2022-09-26T10:10:21.568Z,24.40
2022-09-26T10:13:24.329Z,24.20
2022-09-26T10:16:25.619Z,25.90
2022-09-26T10:19:09.241Z,21.70
2022-09-26T10:21:44.350Z,21.40
2022-09-26T10:24:34.565Z,22.00
2022-09-26T10:27:22.287Z,20.50
2022-09-26T10:30:02.147Z,19.50
2022-09-26T10:32:46.134Z,18.50
2022-09-26T10:35:47.236Z,18.30
2022-09-26T10:38:27.640Z,18.10
2022-09-26T10:41:27.835Z,15.60
2022-09-26T10:44:00.976Z,18.00
2022-09-26T10:46:54.505Z,18.50
2022-09-26T10:50:04.678Z,16.70
2022-09-26T10:53:17.640Z,15.40
2022-09-26T10:55:53.568Z,13.30
2022-09-26T10:58:30.122Z,14.30
2022-09-26T11:01:08.899Z,16.70
2022-09-26T11:03:47.380Z,16.90
2022-09-26T11:06:34.602Z,17.30
2022-09-26T11:09:23.937Z,16.90
2022-09-26T11:12:29.429Z,18.70
2022-09-26T11:15:10.517Z,19.60
2022-09-26T11:17:48.950Z,19.30
2022-09-26T11:20:47.819Z,17.20
2022-09-26T11:23:37.698Z,22.90
2022-09-26T11:26:18.539Z,18.40
2022-09-26T11:29:04.389Z,18.10
2022-09-26T11:32:00.505Z,14.80
2022-09-26T11:34:47.193Z,13.20
2022-09-26T11:37:36.772Z,13.10
2022-09-26T11:40:31.260Z,13.40
2022-09-26T11:43:28.703Z,12.30
2022-09-26T11:46:21.908Z,13.30
2022-09-26T11:49:36.737Z,12.80
2022-09-26T11:55:31.351Z,12.70
2022-09-26T11:58:15.090Z,13.00
2022-09-26T12:00:58.796Z,12.10
2022-09-26T12:04:18.639Z,17.50
2022-09-26T12:07:02.174Z,14.20
2022-09-26T12:09:58.348Z,12.90
2022-09-26T12:12:42.208Z,13.80
2022-09-26T12:18:07.991Z,13.60
2022-09-26T12:20:48.017Z,13.60
2022-09-26T12:23:27.721Z,11.90
2022-09-26T12:26:14.982Z,11.90
2022-09-26T12:29:04.148Z,11.60
2022-09-26T12:31:49.211Z,10.80
2022-09-26T12:34:33.471Z,11.60
2022-09-26T12:37:19.230Z,10.70
2022-09-26T12:40:10.682Z,10.40
2022-09-26T12:42:59.758Z,10.60
2022-09-26T12:45:53.150Z,11.50
2022-09-26T12:48:43.498Z,11.20
2022-09-26T12:51:31.830Z,10.70
2022-09-26T12:54:25.240Z,11.80
2022-09-26T12:57:05.380Z,11.10
2022-09-26T12:59:58.477Z,11.30
2022-09-26T13:02:58.236Z,10.20
2022-09-26T13:05:59.431Z,10.40
2022-09-26T13:08:40.402Z,9.70
2022-09-26T13:11:32.353Z,10.00
2022-09-26T13:14:39.919Z,9.30
2022-09-26T13:17:19.117Z,10.40
2022-09-26T13:19:59.681Z,9.70
2022-09-26T13:22:39.970Z,10.50
2022-09-26T13:25:20.904Z,9.50
2022-09-26T13:27:58.206Z,10.30
2022-09-26T13:30:35.594Z,10.80
2022-09-26T13:33:11.829Z,12.00
2022-09-26T13:35:56.738Z,11.30
2022-09-26T13:38:47.948Z,11.10
2022-09-26T13:41:35.461Z,10.50
2022-09-26T13:44:23.768Z,10.30
2022-09-26T13:47:06.888Z,9.30
2022-09-26T13:49:53.672Z,9.40
2022-09-26T13:52:37.209Z,9.60
2022-09-26T13:55:20.200Z,8.60
2022-09-26T13:58:07.090Z,8.10
2022-09-26T14:00:54.994Z,10.10
2022-09-26T14:03:44.579Z,11.20
2022-09-26T14:06:39.122Z,8.90
2022-09-26T14:09:41.338Z,8.50
2022-09-26T14:12:53.190Z,10.40
2022-09-26T14:15:28.745Z,8.80
2022-09-26T14:18:22.928Z,8.60
2022-09-26T14:21:09.021Z,8.00
2022-09-26T14:23:44.236Z,8.70
2022-09-26T14:26:20.260Z,8.00
2022-09-26T14:28:56.670Z,8.20
2022-09-26T14:32:02.299Z,8.20
2022-09-26T14:34:39.829Z,8.90
2022-09-26T14:37:31.196Z,9.50
2022-09-26T14:40:20.986Z,8.90
2022-09-26T14:43:38.980Z,10.50
2022-09-26T14:46:20.999Z,9.90
2022-09-26T14:49:02.060Z,11.00
2022-09-26T14:51:37.734Z,9.40
2022-09-26T14:54:20.900Z,8.60
2022-09-26T14:57:00.880Z,8.30
2022-09-26T14:59:46.917Z,18.30
2022-09-26T15:02:39.891Z,10.50
2022-09-26T15:05:29.130Z,8.30
2022-09-26T15:08:01.866Z,7.80
2022-09-26T15:10:43.400Z,7.30
2022-09-26T15:13:28.549Z,7.30
2022-09-26T15:16:11.778Z,7.70
2022-09-26T15:18:48.092Z,6.40
2022-09-26T15:21:33.193Z,7.40
2022-09-26T15:24:24.226Z,8.00
2022-09-26T15:26:58.940Z,7.50
2022-09-26T15:29:31.880Z,7.00
2022-09-26T15:32:07.173Z,6.80
2022-09-26T15:34:42.510Z,6.90
2022-09-26T15:37:21.461Z,7.20
2022-09-26T15:39:53.991Z,7.40
2022-09-26T15:42:49.569Z,9.30
2022-09-26T15:45:33.706Z,7.30
2022-09-26T15:48:25.864Z,8.40
2022-09-26T15:51:03.108Z,7.40
2022-09-26T15:53:39.962Z,9.40
2022-09-26T15:56:15.130Z,9.30
2022-09-26T15:58:52.910Z,9.10
2022-09-26T16:01:28.381Z,7.80
2022-09-26T16:04:04.557Z,8.40
2022-09-26T16:06:39.631Z,8.90
2022-09-26T16:09:22.621Z,7.00
2022-09-26T16:11:58.451Z,7.30
2022-09-26T16:14:41.557Z,8.30
2022-09-26T16:17:24.692Z,10.70
2022-09-26T16:19:58.678Z,11.00
2022-09-26T16:22:47.532Z,10.60
2022-09-26T16:25:34.582Z,10.10
2022-09-26T16:28:42.390Z,10.50
2022-09-26T16:31:29.832Z,9.30
2022-09-26T16:34:03.048Z,8.60
2022-09-26T16:36:36.790Z,9.60
2022-09-26T16:39:20.770Z,9.60
2022-09-26T16:42:03.356Z,11.60
2022-09-26T16:44:40.403Z,12.90
2022-09-26T16:47:42.342Z,12.10
2022-09-26T16:50:31.429Z,11.90
2022-09-26T16:53:06.768Z,14.70
2022-09-26T16:55:39.160Z,14.80
2022-09-26T16:58:16.353Z,14.30
2022-09-26T17:01:17.190Z,12.20
2022-09-26T17:03:49.888Z,13.10
2022-09-26T17:06:22.474Z,12.10
2022-09-26T17:08:54.949Z,13.60
2022-09-26T17:11:29.419Z,12.70
2022-09-26T17:14:01.878Z,14.80
2022-09-26T17:16:34.768Z,14.60
2022-09-26T17:19:07.233Z,14.30
2022-09-26T17:21:40.051Z,13.80
2022-09-26T17:24:17.291Z,14.80
2022-09-26T17:26:55.489Z,15.10
2022-09-26T17:29:31.982Z,16.30
2022-09-26T17:32:14.133Z,15.50
2022-09-26T17:34:47.271Z,15.90
2022-09-26T17:37:22.220Z,14.60
2022-09-26T17:39:55.369Z,17.00
2022-09-26T17:42:30.548Z,16.70
2022-09-26T17:45:04.638Z,16.40
2022-09-26T17:47:37.299Z,17.40
2022-09-26T17:50:13.860Z,16.70
2022-09-26T17:52:47.639Z,15.40
2022-09-26T17:55:24.939Z,15.90
2022-09-26T17:57:58.619Z,16.60
2022-09-26T18:00:38.637Z,15.80
2022-09-26T18:03:19.345Z,15.70
2022-09-26T18:05:52.499Z,15.90
2022-09-26T18:08:28.691Z,18.00
2022-09-26T18:11:03.871Z,17.40
2022-09-26T18:13:38.438Z,17.80
2022-09-26T18:16:18.576Z,17.80
2022-09-26T18:18:52.250Z,16.60
2022-09-26T18:21:26.681Z,17.10
2022-09-26T18:24:02.770Z,20.70
2022-09-26T18:26:37.497Z,17.60
2022-09-26T18:29:13.173Z,15.40
2022-09-26T18:31:48.047Z,19.60
2022-09-26T18:34:20.689Z,20.30
2022-09-26T18:36:57.431Z,18.60
2022-09-26T18:39:30.732Z,17.90
2022-09-26T18:42:09.513Z,19.20
2022-09-26T18:44:43.341Z,17.30
2022-09-26T18:47:18.678Z,17.90
2022-09-26T18:49:52.929Z,18.00
2022-09-26T18:52:25.584Z,19.40
2022-09-26T18:55:11.747Z,20.90
2022-09-26T18:58:01.471Z,23.70
2022-09-26T19:00:34.951Z,19.80
2022-09-26T19:03:08.188Z,22.20
2022-09-26T19:05:40.779Z,22.00
2022-09-26T19:08:29.089Z,20.50
2022-09-26T19:11:04.357Z,20.80
2022-09-26T19:13:36.869Z,20.90
2022-09-26T19:16:10.978Z,22.70
2022-09-26T19:18:44.292Z,23.10
2022-09-26T19:21:25.418Z,23.60
2022-09-26T19:23:58.710Z,24.70
2022-09-26T19:26:38.060Z,23.60
2022-09-26T19:29:14.920Z,22.20
2022-09-26T19:31:47.350Z,24.10
2022-09-26T19:34:22.243Z,25.90
2022-09-26T19:36:55.651Z,25.70
2022-09-26T19:39:29.006Z,25.80
2022-09-26T19:42:01.951Z,24.10
2022-09-26T19:44:34.572Z,25.60
2022-09-26T19:47:07.364Z,24.40
2022-09-26T19:49:39.810Z,25.40
2022-09-26T19:52:18.579Z,24.30
2022-09-26T19:54:51.148Z,25.00
2022-09-26T19:57:25.480Z,24.70
2022-09-26T19:59:57.846Z,24.50
2022-09-26T20:02:35.965Z,24.10
2022-09-26T20:05:19.579Z,23.50
2022-09-26T20:07:52.704Z,23.80
2022-09-26T20:10:26.831Z,24.40
2022-09-26T20:12:59.308Z,25.20
2022-09-26T20:15:33.236Z,24.60
2022-09-26T20:18:07.473Z,25.50
2022-09-26T20:20:40.770Z,24.60
2022-09-26T20:23:20.080Z,25.10
2022-09-26T20:25:54.355Z,22.60
2022-09-26T20:28:27.012Z,23.10
2022-09-26T20:30:59.701Z,24.60
2022-09-26T20:33:33.636Z,23.90
2022-09-26T20:36:08.848Z,22.40
2022-09-26T20:38:46.132Z,22.90
2022-09-26T20:41:24.029Z,23.10
2022-09-26T20:44:02.133Z,21.80
2022-09-26T20:46:40.348Z,22.90
2022-09-26T20:49:21.200Z,22.40
2022-09-26T20:51:55.234Z,22.70
2022-09-26T20:54:32.518Z,20.80
2022-09-26T20:57:04.989Z,20.50
2022-09-26T20:59:37.550Z,20.40
2022-09-26T21:02:28.632Z,22.40
2022-09-26T21:05:02.529Z,21.40
2022-09-26T21:07:35.400Z,19.00
2022-09-26T21:10:25.871Z,20.10
2022-09-26T21:12:58.796Z,19.00
2022-09-26T21:15:32.550Z,20.70
2022-09-26T21:18:06.987Z,22.70
2022-09-26T21:20:40.878Z,21.30
2022-09-26T21:26:04.459Z,20.30
2022-09-26T21:28:36.926Z,19.90
2022-09-26T21:31:20.275Z,18.80
2022-09-26T21:33:53.710Z,18.10
2022-09-26T21:36:32.673Z,16.00
2022-09-26T21:39:09.913Z,16.30
2022-09-26T21:41:44.528Z,18.30
2022-09-26T21:44:24.858Z,18.40
2022-09-26T21:46:57.330Z,19.20
2022-09-26T21:49:29.838Z,19.70
2022-09-26T21:52:10.758Z,19.90
2022-09-26T21:54:45.775Z,19.40
2022-09-26T21:57:22.464Z,20.50
2022-09-26T21:59:56.140Z,19.50
2022-09-26T22:02:28.971Z,19.70
2022-09-26T22:05:01.428Z,19.90
2022-09-26T22:07:33.770Z,20.20
2022-09-26T22:10:07.239Z,21.40
2022-09-26T22:12:39.909Z,20.40
2022-09-26T22:15:14.131Z,20.20
2022-09-26T22:17:46.649Z,14.90
2022-09-26T22:20:20.171Z,18.30
2022-09-26T22:22:52.769Z,16.80
2022-09-26T22:25:25.698Z,16.50
2022-09-26T22:27:58.110Z,18.60
2022-09-26T22:30:30.634Z,16.30
2022-09-26T22:33:03.100Z,16.80
2022-09-26T22:35:36.549Z,19.70
2022-09-26T22:38:09.820Z,19.20
2022-09-26T22:40:42.444Z,19.30
2022-09-26T22:43:15.112Z,15.40
2022-09-26T22:45:47.628Z,16.00
2022-09-26T22:48:20.541Z,16.60
2022-09-26T22:50:53.489Z,16.00
2022-09-26T22:53:25.820Z,16.70
2022-09-26T22:56:05.514Z,20.10
2022-09-26T22:58:41.501Z,16.40
2022-09-26T23:01:16.398Z,17.80
2022-09-26T23:03:48.861Z,16.00
2022-09-26T23:06:21.880Z,16.70
2022-09-26T23:08:54.860Z,18.20
2022-09-26T23:11:28.298Z,15.50
2022-09-26T23:14:02.034Z,17.70
2022-09-26T23:16:34.432Z,15.50
2022-09-26T23:19:06.966Z,16.60
2022-09-26T23:21:39.560Z,16.80
2022-09-26T23:24:12.129Z,14.90
2022-09-26T23:26:44.660Z,15.80
2022-09-26T23:29:19.690Z,15.10
2022-09-26T23:31:52.560Z,14.90
2022-09-26T23:34:24.840Z,15.90
2022-09-26T23:37:00.281Z,15.00
2022-09-26T23:39:33.718Z,14.90
2022-09-26T23:44:36.691Z,11.90
2022-09-26T23:47:09.049Z,11.20
2022-09-26T23:49:41.598Z,11.00
2022-09-26T23:52:17.598Z,14.40
2022-09-26T23:54:50.588Z,14.60
2022-09-26T23:57:23.669Z,15.80
2022-09-26T23:59:56.709Z,15.80
